createdAt,value
2022-11-22T00:04:52.804Z,20.90
2022-11-22T00:19:54.710Z,21.10
2022-11-22T00:34:57.109Z,19.50
2022-11-22T00:49:58.278Z,16.60
2022-11-22T01:05:01.079Z,18.70
2022-11-22T01:20:03.631Z,17.90
2022-11-22T01:35:06.484Z,17.90
2022-11-22T01:50:07.452Z,19.30
2022-11-22T02:05:09.340Z,19.10
2022-11-22T02:20:11.241Z,17.70
2022-11-22T02:35:12.580Z,19.20
2022-11-22T02:50:14.538Z,18.60
2022-11-22T03:05:16.485Z,19.40
2022-11-22T03:20:18.281Z,18.80
2022-11-22T03:35:20.735Z,18.80
2022-11-22T03:50:22.094Z,18.20
2022-11-22T04:05:24.568Z,18.10
2022-11-22T04:20:27.508Z,19.00
2022-11-22T04:35:29.189Z,18.80
2022-11-22T04:50:31.057Z,18.00
2022-11-22T05:05:32.950Z,19.00
2022-11-22T05:20:36.348Z,19.60
2022-11-22T05:35:38.797Z,20.10
2022-11-22T05:50:41.161Z,21.20
2022-11-22T06:05:43.081Z,21.10
2022-11-22T06:20:45.414Z,20.50
2022-11-22T06:35:47.314Z,23.80
2022-11-22T06:50:49.215Z,20.90
2022-11-22T07:05:50.572Z,21.20
2022-11-22T07:20:52.980Z,20.40
2022-11-22T07:35:54.843Z,21.10
2022-11-22T07:50:55.741Z,20.20
2022-11-22T08:05:58.765Z,20.10
2022-11-22T08:20:59.215Z,20.70
2022-11-22T08:36:01.291Z,20.70
2022-11-22T08:51:02.156Z,18.90
2022-11-22T09:21:07.525Z,20.90
2022-11-22T09:36:09.445Z,24.40
2022-11-22T09:51:09.897Z,24.10
2022-11-22T10:06:10.212Z,23.80
2022-11-22T10:21:11.951Z,24.30
2022-11-22T10:36:15.701Z,24.30
2022-11-22T10:51:16.670Z,24.60
2022-11-22T11:06:33.458Z,24.70
2022-11-22T11:21:23.881Z,24.00
2022-11-22T11:36:26.118Z,26.40
2022-11-22T11:51:26.375Z,24.90
2022-11-22T12:06:28.703Z,25.00
2022-11-22T12:21:29.909Z,24.70
2022-11-22T12:36:33.029Z,26.50
2022-11-22T12:51:37.561Z,26.00
2022-11-22T13:06:41.284Z,24.90
2022-11-22T13:21:43.704Z,26.30
2022-11-22T13:36:45.244Z,26.70
2022-11-22T13:51:46.751Z,28.40
2022-11-22T14:06:48.669Z,28.00
2022-11-22T14:21:50.393Z,27.80
2022-11-22T14:36:51.635Z,26.40
2022-11-22T14:51:53.368Z,29.20
2022-11-22T15:09:18.389Z,27.50
2022-11-22T16:07:18.566Z,28.70
2022-11-22T16:22:21.013Z,29.60
2022-11-22T16:37:21.583Z,26.90
2022-11-22T16:52:23.149Z,29.20
2022-11-22T17:07:23.978Z,27.70
2022-11-22T17:22:26.052Z,29.50
2022-11-22T17:37:28.970Z,28.50
2022-11-22T17:52:29.337Z,29.20
2022-11-22T18:07:30.627Z,30.90
2022-11-22T18:22:32.194Z,30.00
2022-11-22T18:37:33.068Z,30.60
2022-11-22T18:52:33.227Z,31.50
2022-11-22T19:07:35.251Z,28.10
2022-11-22T19:22:35.673Z,31.90
2022-11-22T19:37:38.083Z,29.10
2022-11-22T19:52:42.267Z,30.50
2022-11-22T20:07:45.234Z,29.40
2022-11-22T20:22:46.398Z,29.20
2022-11-22T20:37:48.584Z,28.90
2022-11-22T20:52:50.999Z,28.30
2022-11-22T21:07:54.447Z,27.30
2022-11-22T21:22:55.750Z,31.50
2022-11-22T21:37:57.719Z,31.90
2022-11-22T21:52:58.691Z,29.90
2022-11-22T22:08:00.772Z,30.10
2022-11-22T22:23:02.681Z,30.50
2022-11-22T22:38:05.365Z,30.10
2022-11-22T22:53:08.079Z,29.50
2022-11-22T23:08:08.997Z,30.70
2022-11-22T23:23:09.133Z,31.30
2022-11-22T23:38:11.274Z,33.10
2022-11-22T23:53:12.751Z,35.50
